ENSO/SRP METAR and TAF weather

Enter ICAO airport designator
Station Type Date Time Source
ENSO METAR 2023/02/05 13:20 UTC NOAA

ENSO 051320Z 31008KT 9999 FEW016 SCT024 06/05 Q1037


Station Type Date Time Source
ENSO Decoded METAR 2023/02/05 13:20 UTC NOAA

Stord / Soerstokken, Norway (ENSO) 59-48N 005-21E
Feb 05, 2023 - 08:20 AM EST / 2023.02.05 1320 UTC
Wind: from the NW (310 degrees) at 9 MPH (8 KT):0
Visibility: greater than 7 mile(s):0
Sky conditions: partly cloudy
Temperature: 42 F (6 C)
Dew Point: 41 F (5 C)
Relative Humidity: 93%
Pressure (altimeter): 30.62 in. Hg (1037 hPa)
ob: ENSO 051320Z 31008KT 9999 FEW016 SCT024 06/05 Q1037
cycle: 13

Station Type Date Time Source
ENSO TAF UTC NOAA

Error!

Example: see airport list